sensor_id;sensor_type;location;lat;lon;timestamp;pressure;altitude;pressure_sealevel;temperature;humidity
50394;BME280;36308;46.312;25.288;2022-07-23T00:02:07;96265.34;;;19.43;49.80
50394;BME280;36308;46.312;25.288;2022-07-23T00:04:33;96271.41;;;19.39;49.97
50394;BME280;36308;46.312;25.288;2022-07-23T00:06:58;96270.41;;;19.35;49.90
50394;BME280;36308;46.312;25.288;2022-07-23T00:09:24;96281.94;;;19.32;50.04
50394;BME280;36308;46.312;25.288;2022-07-23T00:11:49;96265.38;;;19.29;50.30
50394;BME280;36308;46.312;25.288;2022-07-23T00:14:14;96272.56;;;19.25;50.37
50394;BME280;36308;46.312;25.288;2022-07-23T00:16:40;96263.38;;;19.21;50.42
50394;BME280;36308;46.312;25.288;2022-07-23T00:19:05;96271.06;;;19.18;50.39
50394;BME280;36308;46.312;25.288;2022-07-23T00:21:31;96269.78;;;19.16;50.50
50394;BME280;36308;46.312;25.288;2022-07-23T00:23:56;96271.50;;;19.12;50.82
50394;BME280;36308;46.312;25.288;2022-07-23T00:26:21;96265.84;;;19.08;50.83
50394;BME280;36308;46.312;25.288;2022-07-23T00:28:47;96272.72;;;19.06;50.75
50394;BME280;36308;46.312;25.288;2022-07-23T00:31:12;96269.50;;;19.04;50.94
50394;BME280;36308;46.312;25.288;2022-07-23T00:33:38;96273.16;;;18.99;50.96
50394;BME280;36308;46.312;25.288;2022-07-23T00:36:04;96267.50;;;18.95;51.14
50394;BME280;36308;46.312;25.288;2022-07-23T00:38:30;96270.81;;;18.92;51.14
50394;BME280;36308;46.312;25.288;2022-07-23T00:40:55;96271.44;;;18.89;51.22
50394;BME280;36308;46.312;25.288;2022-07-23T00:43:21;96266.91;;;18.85;51.63
50394;BME280;36308;46.312;25.288;2022-07-23T00:45:47;96266.72;;;18.81;51.49
50394;BME280;36308;46.312;25.288;2022-07-23T00:48:12;96268.13;;;18.78;51.47
50394;BME280;36308;46.312;25.288;2022-07-23T00:50:38;96278.78;;;18.75;51.69
50394;BME280;36308;46.312;25.288;2022-07-23T00:53:04;96276.34;;;18.73;51.78
50394;BME280;36308;46.312;25.288;2022-07-23T00:55:30;96276.19;;;18.70;51.72
50394;BME280;36308;46.312;25.288;2022-07-23T00:57:57;96270.53;;;18.66;51.87
50394;BME280;36308;46.312;25.288;2022-07-23T01:00:22;96274.97;;;18.62;52.00
50394;BME280;36308;46.312;25.288;2022-07-23T01:02:48;96272.53;;;18.61;52.05
50394;BME280;36308;46.312;25.288;2022-07-23T01:05:14;96272.31;;;18.57;52.20
50394;BME280;36308;46.312;25.288;2022-07-23T01:07:40;96278.41;;;18.54;52.10
50394;BME280;36308;46.312;25.288;2022-07-23T01:10:06;96275.16;;;18.52;52.38
50394;BME280;36308;46.312;25.288;2022-07-23T01:12:51;96275.75;;;18.49;52.40
50394;BME280;36308;46.312;25.288;2022-07-23T01:15:17;96277.16;;;18.46;52.41
50394;BME280;36308;46.312;25.288;2022-07-23T01:17:42;96264.19;;;18.43;52.62
50394;BME280;36308;46.312;25.288;2022-07-23T01:20:08;96278.09;;;18.42;52.59
50394;BME280;36308;46.312;25.288;2022-07-23T01:22:33;96282.22;;;18.39;52.80
50394;BME280;36308;46.312;25.288;2022-07-23T01:24:59;96278.19;;;18.36;52.97
50394;BME280;36308;46.312;25.288;2022-07-23T01:27:24;96285.03;;;18.34;52.97
50394;BME280;36308;46.312;25.288;2022-07-23T01:29:50;96281.81;;;18.32;53.09
50394;BME280;36308;46.312;25.288;2022-07-23T01:32:15;96280.78;;;18.28;53.20
50394;BME280;36308;46.312;25.288;2022-07-23T01:34:41;96283.00;;;18.26;53.23
50394;BME280;36308;46.312;25.288;2022-07-23T01:37:06;96279.78;;;18.24;53.49
50394;BME280;36308;46.312;25.288;2022-07-23T01:39:32;96276.53;;;18.22;53.58
50394;BME280;36308;46.312;25.288;2022-07-23T01:41:57;96276.03;;;18.20;53.43
50394;BME280;36308;46.312;25.288;2022-07-23T01:44:22;96273.63;;;18.18;53.36
50394;BME280;36308;46.312;25.288;2022-07-23T01:46:48;96279.38;;;18.16;53.67
50394;BME280;36308;46.312;25.288;2022-07-23T01:49:13;96274.53;;;18.13;53.62
50394;BME280;36308;46.312;25.288;2022-07-23T01:51:39;96289.25;;;18.12;53.76
50394;BME280;36308;46.312;25.288;2022-07-23T01:54:24;96281.66;;;18.09;53.92
50394;BME280;36308;46.312;25.288;2022-07-23T01:56:49;96281.16;;;18.07;53.97
50394;BME280;36308;46.312;25.288;2022-07-23T01:59:15;96284.50;;;18.04;53.91
50394;BME280;36308;46.312;25.288;2022-07-23T02:01:40;96274.69;;;18.03;53.87
50394;BME280;36308;46.312;25.288;2022-07-23T02:04:12;96281.84;;;17.99;54.02
50394;BME280;36308;46.312;25.288;2022-07-23T02:06:37;96280.81;;;17.95;53.99
50394;BME280;36308;46.312;25.288;2022-07-23T02:09:02;96283.53;;;17.95;54.25
50394;BME280;36308;46.312;25.288;2022-07-23T02:11:28;96281.94;;;17.94;54.10
50394;BME280;36308;46.312;25.288;2022-07-23T02:13:53;96284.78;;;17.89;54.15
50394;BME280;36308;46.312;25.288;2022-07-23T02:16:19;96285.84;;;17.88;54.20
50394;BME280;36308;46.312;25.288;2022-07-23T02:18:44;96276.69;;;17.84;54.17
50394;BME280;36308;46.312;25.288;2022-07-23T02:21:11;96276.13;;;17.82;54.54
50394;BME280;36308;46.312;25.288;2022-07-23T02:23:36;96281.06;;;17.80;54.36
50394;BME280;36308;46.312;25.288;2022-07-23T02:26:02;96283.28;;;17.77;54.53
50394;BME280;36308;46.312;25.288;2022-07-23T02:28:27;96283.06;;;17.74;54.49
50394;BME280;36308;46.312;25.288;2022-07-23T02:30:52;96285.28;;;17.72;54.61
50394;BME280;36308;46.312;25.288;2022-07-23T02:33:18;96283.97;;;17.69;55.07
50394;BME280;36308;46.312;25.288;2022-07-23T02:35:43;96279.94;;;17.67;54.83
50394;BME280;36308;46.312;25.288;2022-07-23T02:38:09;96284.84;;;17.65;54.88
50394;BME280;36308;46.312;25.288;2022-07-23T02:40:34;96284.63;;;17.61;55.00
50394;BME280;36308;46.312;25.288;2022-07-23T02:43:00;96285.25;;;17.58;55.31
50394;BME280;36308;46.312;25.288;2022-07-23T02:45:25;96286.63;;;17.55;55.34
50394;BME280;36308;46.312;25.288;2022-07-23T02:47:51;96293.47;;;17.53;55.33
50394;BME280;36308;46.312;25.288;2022-07-23T02:50:16;96299.50;;;17.50;55.53
50394;BME280;36308;46.312;25.288;2022-07-23T02:52:42;96290.84;;;17.48;55.42
50394;BME280;36308;46.312;25.288;2022-07-23T02:55:07;96296.34;;;17.43;55.88
50394;BME280;36308;46.312;25.288;2022-07-23T02:57:33;96301.25;;;17.41;55.79
50394;BME280;36308;46.312;25.288;2022-07-23T02:59:58;96298.84;;;17.39;55.75
50394;BME280;36308;46.312;25.288;2022-07-23T03:02:24;96298.63;;;17.35;55.99
50394;BME280;36308;46.312;25.288;2022-07-23T03:04:49;96300.03;;;17.33;56.21
50394;BME280;36308;46.312;25.288;2022-07-23T03:07:16;96294.38;;;17.29;55.87
50394;BME280;36308;46.312;25.288;2022-07-23T03:09:42;96303.59;;;17.28;56.29
50394;BME280;36308;46.312;25.288;2022-07-23T03:12:07;96300.38;;;17.26;56.07
50394;BME280;36308;46.312;25.288;2022-07-23T03:14:33;96304.19;;;17.25;56.50
50394;BME280;36308;46.312;25.288;2022-07-23T03:16:58;96309.41;;;17.22;56.67
50394;BME280;36308;46.312;25.288;2022-07-23T03:19:25;96308.59;;;17.21;56.59
50394;BME280;36308;46.312;25.288;2022-07-23T03:21:51;96311.59;;;17.20;56.76
50394;BME280;36308;46.312;25.288;2022-07-23T03:24:16;96314.63;;;17.18;56.71
50394;BME280;36308;46.312;25.288;2022-07-23T03:26:43;96309.19;;;17.18;56.68
50394;BME280;36308;46.312;25.288;2022-07-23T03:29:09;96311.38;;;17.16;57.12
50394;BME280;36308;46.312;25.288;2022-07-23T03:31:35;96320.66;;;17.15;56.93
50394;BME280;36308;46.312;25.288;2022-07-23T03:34:01;96315.22;;;17.15;57.03
50394;BME280;36308;46.312;25.288;2022-07-23T03:36:26;96314.41;;;17.14;57.07
50394;BME280;36308;46.312;25.288;2022-07-23T03:38:52;96320.66;;;17.15;57.24
50394;BME280;36308;46.312;25.288;2022-07-23T03:41:19;96322.03;;;17.12;57.36
50394;BME280;36308;46.312;25.288;2022-07-23T03:43:44;96323.66;;;17.13;57.14
50394;BME280;36308;46.312;25.288;2022-07-23T03:46:10;96321.72;;;17.14;57.48
50394;BME280;36308;46.312;25.288;2022-07-23T03:48:36;96318.22;;;17.13;57.44
50394;BME280;36308;46.312;25.288;2022-07-23T03:51:01;96320.66;;;17.15;57.37
50394;BME280;36308;46.312;25.288;2022-07-23T03:53:27;96316.81;;;17.16;57.61
50394;BME280;36308;46.312;25.288;2022-07-23T03:55:52;96317.66;;;17.16;57.64
50394;BME280;36308;46.312;25.288;2022-07-23T03:58:18;96321.69;;;17.19;58.01
50394;BME280;36308;46.312;25.288;2022-07-23T04:00:43;96319.47;;;17.21;57.91
50394;BME280;36308;46.312;25.288;2022-07-23T04:03:09;96315.44;;;17.19;58.05
50394;BME280;36308;46.312;25.288;2022-07-23T04:05:34;96324.31;;;17.24;57.96
50394;BME280;36308;46.312;25.288;2022-07-23T04:08:00;96329.47;;;17.26;58.05
50394;BME280;36308;46.312;25.288;2022-07-23T04:10:25;96330.78;;;17.28;58.41
50394;BME280;36308;46.312;25.288;2022-07-23T04:12:50;96316.63;;;17.31;58.30
50394;BME280;36308;46.312;25.288;2022-07-23T04:15:16;96316.00;;;17.34;58.40
50394;BME280;36308;46.312;25.288;2022-07-23T04:17:41;96321.69;;;17.38;58.49
50394;BME280;36308;46.312;25.288;2022-07-23T04:20:09;96319.19;;;17.42;58.77
50394;BME280;36308;46.312;25.288;2022-07-23T04:22:35;96320.22;;;17.46;58.57
50394;BME280;36308;46.312;25.288;2022-07-23T04:25:01;96322.34;;;17.49;58.68
50394;BME280;36308;46.312;25.288;2022-07-23T04:27:26;96321.44;;;17.53;58.41
50394;BME280;36308;46.312;25.288;2022-07-23T04:29:51;96314.63;;;17.56;58.43
50394;BME280;36308;46.312;25.288;2022-07-23T04:32:17;96315.06;;;17.63;58.65
50394;BME280;36308;46.312;25.288;2022-07-23T04:34:42;96322.03;;;17.69;58.50
50394;BME280;36308;46.312;25.288;2022-07-23T04:37:08;96328.19;;;17.75;58.16
50394;BME280;36308;46.312;25.288;2022-07-23T04:39:33;96314.00;;;17.78;58.21
50394;BME280;36308;46.312;25.288;2022-07-23T04:41:59;96323.44;;;17.86;58.07
50394;BME280;36308;46.312;25.288;2022-07-23T04:44:24;96324.44;;;17.90;57.76
50394;BME280;36308;46.312;25.288;2022-07-23T04:46:49;96323.25;;;17.96;57.70
50394;BME280;36308;46.312;25.288;2022-07-23T04:49:15;96331.81;;;18.03;57.82
50394;BME280;36308;46.312;25.288;2022-07-23T04:51:40;96330.63;;;18.09;58.06
50394;BME280;36308;46.312;25.288;2022-07-23T04:54:06;96329.44;;;18.15;58.17
50394;BME280;36308;46.312;25.288;2022-07-23T04:56:31;96329.38;;;18.21;58.03
50394;BME280;36308;46.312;25.288;2022-07-23T04:58:57;96328.97;;;18.27;58.08
50394;BME280;36308;46.312;25.288;2022-07-23T05:01:22;96331.28;;;18.34;57.94
50394;BME280;36308;46.312;25.288;2022-07-23T05:03:47;96336.06;;;18.42;58.09
50394;BME280;36308;46.312;25.288;2022-07-23T05:06:14;96322.34;;;18.47;57.90
50394;BME280;36308;46.312;25.288;2022-07-23T05:08:39;96333.66;;;18.54;57.88
50394;BME280;36308;46.312;25.288;2022-07-23T05:11:05;96325.91;;;18.62;57.67
50394;BME280;36308;46.312;25.288;2022-07-23T05:13:30;96328.72;;;18.70;57.28
50394;BME280;36308;46.312;25.288;2022-07-23T05:15:56;96328.31;;;18.77;57.37
50394;BME280;36308;46.312;25.288;2022-07-23T05:18:21;96325.22;;;18.84;56.09
50394;BME280;36308;46.312;25.288;2022-07-23T05:20:47;96334.59;;;18.91;54.83
50394;BME280;36308;46.312;25.288;2022-07-23T05:23:12;96337.13;;;19.02;54.37
50394;BME280;36308;46.312;25.288;2022-07-23T05:25:38;96340.94;;;19.14;54.30
50394;BME280;36308;46.312;25.288;2022-07-23T05:28:04;96337.19;;;19.24;54.80
50394;BME280;36308;46.312;25.288;2022-07-23T05:30:30;96340.50;;;19.35;55.08
50394;BME280;36308;46.312;25.288;2022-07-23T05:32:55;96339.47;;;19.45;55.37
50394;BME280;36308;46.312;25.288;2022-07-23T05:35:21;96342.56;;;19.52;55.26
50394;BME280;36308;46.312;25.288;2022-07-23T05:37:46;96329.31;;;19.59;54.99
50394;BME280;36308;46.312;25.288;2022-07-23T05:40:12;96335.94;;;19.67;54.78
50394;BME280;36308;46.312;25.288;2022-07-23T05:42:39;96335.53;;;19.73;54.16
50394;BME280;36308;46.312;25.288;2022-07-23T05:45:05;96333.22;;;19.81;53.98
50394;BME280;36308;46.312;25.288;2022-07-23T05:47:45;96325.38;;;19.88;54.37
50394;BME280;36308;46.312;25.288;2022-07-23T05:50:11;96323.53;;;19.97;54.23
50394;BME280;36308;46.312;25.288;2022-07-23T05:52:38;96333.69;;;20.05;54.01
50394;BME280;36308;46.312;25.288;2022-07-23T05:55:03;96326.66;;;20.13;54.15
50394;BME280;36308;46.312;25.288;2022-07-23T05:57:29;96327.25;;;20.24;54.17
50394;BME280;36308;46.312;25.288;2022-07-23T05:59:55;96326.16;;;20.33;54.35
50394;BME280;36308;46.312;25.288;2022-07-23T06:02:20;96326.72;;;20.44;54.03
50394;BME280;36308;46.312;25.288;2022-07-23T06:04:45;96319.34;;;20.53;54.03
50394;BME280;36308;46.312;25.288;2022-07-23T06:07:11;96317.97;;;20.65;54.07
50394;BME280;36308;46.312;25.288;2022-07-23T06:09:36;96321.25;;;20.75;53.11
50394;BME280;36308;46.312;25.288;2022-07-23T06:12:02;96318.22;;;20.86;53.16
50394;BME280;36308;46.312;25.288;2022-07-23T06:16:53;96317.31;;;21.08;53.57
50394;BME280;36308;46.312;25.288;2022-07-23T06:19:18;96305.44;;;21.21;53.36
50394;BME280;36308;46.312;25.288;2022-07-23T06:21:44;96309.47;;;21.32;53.17
50394;BME280;36308;46.312;25.288;2022-07-23T06:24:09;96308.06;;;21.44;52.84
50394;BME280;36308;46.312;25.288;2022-07-23T06:26:35;96311.78;;;21.56;52.73
50394;BME280;36308;46.312;25.288;2022-07-23T06:29:00;96297.44;;;21.68;52.43
50394;BME280;36308;46.312;25.288;2022-07-23T06:31:26;96295.31;;;21.83;51.98
50394;BME280;36308;46.312;25.288;2022-07-23T06:33:51;96288.41;;;21.94;52.26
50394;BME280;36308;46.312;25.288;2022-07-23T06:36:17;96288.34;;;22.11;52.06
50394;BME280;36308;46.312;25.288;2022-07-23T06:38:42;96290.63;;;22.27;51.66
50394;BME280;36308;46.312;25.288;2022-07-23T06:41:09;96296.66;;;22.41;50.74
50394;BME280;36308;46.312;25.288;2022-07-23T06:43:34;96288.56;;;22.53;50.33
50394;BME280;36308;46.312;25.288;2022-07-23T06:45:59;96297.72;;;22.66;50.29
50394;BME280;36308;46.312;25.288;2022-07-23T06:48:25;96297.47;;;22.80;49.84
50394;BME280;36308;46.312;25.288;2022-07-23T06:50:50;96283.22;;;22.95;49.45
50394;BME280;36308;46.312;25.288;2022-07-23T06:53:17;96271.38;;;23.12;49.16
50394;BME280;36308;46.312;25.288;2022-07-23T06:55:43;96278.22;;;23.27;48.91
50394;BME280;36308;46.312;25.288;2022-07-23T06:58:08;96277.59;;;23.43;48.58
50394;BME280;36308;46.312;25.288;2022-07-23T07:00:35;96272.66;;;23.57;48.15
50394;BME280;36308;46.312;25.288;2022-07-23T07:03:01;96270.09;;;23.73;47.74
50394;BME280;36308;46.312;25.288;2022-07-23T07:05:27;96267.09;;;23.87;47.42
50394;BME280;36308;46.312;25.288;2022-07-23T07:07:54;96276.63;;;24.02;47.31
50394;BME280;36308;46.312;25.288;2022-07-23T07:10:20;96272.91;;;24.18;47.24
50394;BME280;36308;46.312;25.288;2022-07-23T07:12:45;96272.25;;;24.34;46.86
50394;BME280;36308;46.312;25.288;2022-07-23T07:15:11;96273.09;;;24.47;46.82
50394;BME280;36308;46.312;25.288;2022-07-23T07:17:37;96277.94;;;24.62;46.27
50394;BME280;36308;46.312;25.288;2022-07-23T07:20:03;96273.69;;;24.77;46.20
50394;BME280;36308;46.312;25.288;2022-07-23T07:22:29;96273.44;;;24.94;46.08
50394;BME280;36308;46.312;25.288;2022-07-23T07:24:55;96274.81;;;25.13;45.89
50394;BME280;36308;46.312;25.288;2022-07-23T07:27:20;96276.53;;;25.30;45.03
50394;BME280;36308;46.312;25.288;2022-07-23T07:29:45;96269.13;;;25.46;44.73
50394;BME280;36308;46.312;25.288;2022-07-23T07:32:11;96273.94;;;25.61;44.41
50394;BME280;36308;46.312;25.288;2022-07-23T07:34:36;96267.66;;;25.77;44.11
50394;BME280;36308;46.312;25.288;2022-07-23T07:37:02;96262.59;;;25.91;43.78
50394;BME280;36308;46.312;25.288;2022-07-23T07:39:27;96265.38;;;26.07;43.49
50394;BME280;36308;46.312;25.288;2022-07-23T07:41:53;96269.66;;;26.20;42.88
50394;BME280;36308;46.312;25.288;2022-07-23T07:44:18;96271.66;;;26.36;41.96
50394;BME280;36308;46.312;25.288;2022-07-23T07:46:44;96278.34;;;26.51;42.26
50394;BME280;36308;46.312;25.288;2022-07-23T07:49:09;96283.44;;;26.65;41.49
50394;BME280;36308;46.312;25.288;2022-07-23T07:51:35;96282.19;;;26.78;40.97
50394;BME280;36308;46.312;25.288;2022-07-23T07:54:01;96277.72;;;26.89;40.96
50394;BME280;36308;46.312;25.288;2022-07-23T07:56:26;96279.22;;;27.02;40.41
50394;BME280;36308;46.312;25.288;2022-07-23T07:58:52;96277.25;;;27.19;40.00
50394;BME280;36308;46.312;25.288;2022-07-23T08:01:17;96275.19;;;27.32;39.44
50394;BME280;36308;46.312;25.288;2022-07-23T08:03:45;96277.03;;;27.44;39.26
50394;BME280;36308;46.312;25.288;2022-07-23T08:06:10;96281.69;;;27.59;38.67
50394;BME280;36308;46.312;25.288;2022-07-23T08:08:35;96270.94;;;27.73;38.29
50394;BME280;36308;46.312;25.288;2022-07-23T08:11:01;96279.97;;;27.90;38.07
50394;BME280;36308;46.312;25.288;2022-07-23T08:13:26;96269.91;;;28.01;37.75
50394;BME280;36308;46.312;25.288;2022-07-23T08:15:52;96273.38;;;28.17;37.21
50394;BME280;36308;46.312;25.288;2022-07-23T08:18:19;96272.88;;;28.31;37.19
50394;BME280;36308;46.312;25.288;2022-07-23T08:20:44;96267.94;;;28.44;36.50
50394;BME280;36308;46.312;25.288;2022-07-23T08:23:10;96263.84;;;28.57;36.14
50394;BME280;36308;46.312;25.288;2022-07-23T08:25:40;96265.28;;;28.71;35.93
50394;BME280;36308;46.312;25.288;2022-07-23T08:28:08;96267.09;;;28.86;34.94
50394;BME280;36308;46.312;25.288;2022-07-23T08:30:35;96265.31;;;28.97;34.34
50394;BME280;36308;46.312;25.288;2022-07-23T08:33:10;96260.00;;;29.12;34.79
50394;BME280;36308;46.312;25.288;2022-07-23T08:35:40;96253.00;;;29.21;34.77
50394;BME280;36308;46.312;25.288;2022-07-23T08:38:09;96259.53;;;29.36;34.99
50394;BME280;36308;46.312;25.288;2022-07-23T08:40:37;96262.13;;;29.52;34.19
50394;BME280;36308;46.312;25.288;2022-07-23T08:43:05;96255.19;;;29.66;33.36
50394;BME280;36308;46.312;25.288;2022-07-23T08:45:39;96258.56;;;29.78;32.52
50394;BME280;36308;46.312;25.288;2022-07-23T08:48:09;96258.72;;;29.93;32.25
50394;BME280;36308;46.312;25.288;2022-07-23T08:50:36;96260.47;;;30.08;31.75
50394;BME280;36308;46.312;25.288;2022-07-23T08:53:05;96259.00;;;30.21;31.61
50394;BME280;36308;46.312;25.288;2022-07-23T08:55:31;96259.19;;;30.36;31.23
50394;BME280;36308;46.312;25.288;2022-07-23T08:57:56;96257.75;;;30.49;30.51
50394;BME280;36308;46.312;25.288;2022-07-23T09:00:22;96256.25;;;30.62;30.47
50394;BME280;36308;46.312;25.288;2022-07-23T09:02:48;96251.63;;;30.77;30.75
50394;BME280;36308;46.312;25.288;2022-07-23T09:05:18;96251.34;;;30.90;29.76
50394;BME280;36308;46.312;25.288;2022-07-23T09:10:29;96247.19;;;31.21;30.04
50394;BME280;36308;46.312;25.288;2022-07-23T09:12:54;96245.31;;;31.39;30.12
50394;BME280;36308;46.312;25.288;2022-07-23T09:15:20;96247.44;;;31.57;30.37
50394;BME280;36308;46.312;25.288;2022-07-23T09:17:45;96253.06;;;31.78;30.38
50394;BME280;36308;46.312;25.288;2022-07-23T09:20:13;96246.81;;;31.99;30.42
50394;BME280;36308;46.312;25.288;2022-07-23T09:22:43;96255.25;;;32.21;30.09
50394;BME280;36308;46.312;25.288;2022-07-23T09:25:16;96244.91;;;32.39;29.42
50394;BME280;36308;46.312;25.288;2022-07-23T09:27:56;96246.16;;;32.64;29.34
50394;BME280;36308;46.312;25.288;2022-07-23T09:30:27;96245.38;;;32.88;29.17
50394;BME280;36308;46.312;25.288;2022-07-23T09:38:12;96245.28;;;33.49;28.65
50394;BME280;36308;46.312;25.288;2022-07-23T09:40:39;96241.28;;;33.68;28.14
50394;BME280;36308;46.312;25.288;2022-07-23T09:43:04;96241.97;;;33.87;27.80
50394;BME280;36308;46.312;25.288;2022-07-23T09:45:30;96233.91;;;34.07;27.47
50394;BME280;36308;46.312;25.288;2022-07-23T09:48:16;96229.03;;;34.29;27.22
50394;BME280;36308;46.312;25.288;2022-07-23T09:50:42;96225.69;;;34.48;27.28
50394;BME280;36308;46.312;25.288;2022-07-23T09:53:08;96219.97;;;34.70;26.73
50394;BME280;36308;46.312;25.288;2022-07-23T09:55:36;96216.22;;;34.91;26.01
50394;BME280;36308;46.312;25.288;2022-07-23T09:58:03;96213.22;;;35.09;25.64
50394;BME280;36308;46.312;25.288;2022-07-23T10:00:31;96209.13;;;35.24;25.85
50394;BME280;36308;46.312;25.288;2022-07-23T10:02:57;96218.47;;;35.45;25.65
50394;BME280;36308;46.312;25.288;2022-07-23T10:05:25;96221.06;;;35.66;24.90
50394;BME280;36308;46.312;25.288;2022-07-23T10:07:51;96213.22;;;35.85;24.91
50394;BME280;36308;46.312;25.288;2022-07-23T10:10:17;96218.53;;;36.06;24.71
50394;BME280;36308;46.312;25.288;2022-07-23T10:12:46;96217.16;;;36.21;23.81
50394;BME280;36308;46.312;25.288;2022-07-23T10:15:30;96212.66;;;36.28;23.19
50394;BME280;36308;46.312;25.288;2022-07-23T10:17:56;96206.22;;;36.31;23.18
50394;BME280;36308;46.312;25.288;2022-07-23T10:20:21;96210.13;;;36.37;23.58
50394;BME280;36308;46.312;25.288;2022-07-23T10:23:03;96204.28;;;36.51;23.74
50394;BME280;36308;46.312;25.288;2022-07-23T10:25:46;96201.59;;;36.71;23.48
50394;BME280;36308;46.312;25.288;2022-07-23T10:36:18;96197.38;;;37.70;21.38
50394;BME280;36308;46.312;25.288;2022-07-23T10:38:57;96181.84;;;37.86;21.02
50394;BME280;36308;46.312;25.288;2022-07-23T10:41:37;96192.41;;;37.98;20.69
50394;BME280;36308;46.312;25.288;2022-07-23T10:44:11;96190.09;;;38.13;20.56
50394;BME280;36308;46.312;25.288;2022-07-23T10:46:54;96188.94;;;38.27;20.69
50394;BME280;36308;46.312;25.288;2022-07-23T10:49:40;96183.00;;;38.41;20.46
50394;BME280;36308;46.312;25.288;2022-07-23T10:54:41;96184.25;;;38.73;21.03
50394;BME280;36308;46.312;25.288;2022-07-23T10:57:08;96183.00;;;38.90;21.05
50394;BME280;36308;46.312;25.288;2022-07-23T11:02:42;96173.44;;;39.33;19.80
50394;BME280;36308;46.312;25.288;2022-07-23T11:05:08;96171.47;;;39.47;20.11
50394;BME280;36308;46.312;25.288;2022-07-23T11:07:35;96179.16;;;39.59;19.40
50394;BME280;36308;46.312;25.288;2022-07-23T11:10:02;96171.91;;;39.74;19.11
50394;BME280;36308;46.312;25.288;2022-07-23T11:17:29;96175.22;;;40.11;19.22
50394;BME280;36308;46.312;25.288;2022-07-23T11:27:47;96159.69;;;40.45;18.01
50394;BME280;36308;46.312;25.288;2022-07-23T11:32:51;96152.13;;;40.55;17.33
50394;BME280;36308;46.312;25.288;2022-07-23T11:35:27;96144.81;;;40.57;17.40
50394;BME280;36308;46.312;25.288;2022-07-23T11:38:18;96138.25;;;40.60;17.50
50394;BME280;36308;46.312;25.288;2022-07-23T11:40:49;96139.16;;;40.57;17.29
50394;BME280;36308;46.312;25.288;2022-07-23T11:43:16;96135.56;;;40.44;17.03
50394;BME280;36308;46.312;25.288;2022-07-23T11:45:44;96127.59;;;40.30;17.17
50394;BME280;36308;46.312;25.288;2022-07-23T11:48:27;96136.03;;;40.30;18.26
50394;BME280;36308;46.312;25.288;2022-07-23T11:50:54;96125.56;;;40.30;17.99
50394;BME280;36308;46.312;25.288;2022-07-23T11:55:53;96118.66;;;40.44;18.13
50394;BME280;36308;46.312;25.288;2022-07-23T11:58:20;96100.63;;;40.54;17.99
50394;BME280;36308;46.312;25.288;2022-07-23T12:00:46;96111.41;;;40.69;18.01
50394;BME280;36308;46.312;25.288;2022-07-23T12:03:11;96101.38;;;40.80;17.77
50394;BME280;36308;46.312;25.288;2022-07-23T12:05:38;96094.56;;;40.91;17.51
50394;BME280;36308;46.312;25.288;2022-07-23T12:08:08;96097.00;;;41.02;16.96
50394;BME280;36308;46.312;25.288;2022-07-23T12:10:37;96109.25;;;41.08;16.73
50394;BME280;36308;46.312;25.288;2022-07-23T12:13:05;96107.09;;;41.12;16.83
50394;BME280;36308;46.312;25.288;2022-07-23T12:15:35;96102.16;;;41.16;16.77
50394;BME280;36308;46.312;25.288;2022-07-23T12:18:04;96099.81;;;41.24;16.65
50394;BME280;36308;46.312;25.288;2022-07-23T12:20:33;96105.66;;;41.29;16.30
50394;BME280;36308;46.312;25.288;2022-07-23T12:23:01;96097.75;;;41.37;16.71
50394;BME280;36308;46.312;25.288;2022-07-23T12:25:39;96094.63;;;41.44;16.76
50394;BME280;36308;46.312;25.288;2022-07-23T12:28:16;96103.00;;;41.57;16.29
50394;BME280;36308;46.312;25.288;2022-07-23T12:30:43;96091.16;;;41.62;15.76
50394;BME280;36308;46.312;25.288;2022-07-23T12:33:18;96088.91;;;41.57;14.95
50394;BME280;36308;46.312;25.288;2022-07-23T12:35:46;96086.91;;;41.35;14.80
50394;BME280;36308;46.312;25.288;2022-07-23T12:38:20;96085.41;;;41.22;14.91
50394;BME280;36308;46.312;25.288;2022-07-23T12:40:55;96076.84;;;41.12;15.44
50394;BME280;36308;46.312;25.288;2022-07-23T12:43:24;96078.56;;;41.10;15.43
50394;BME280;36308;46.312;25.288;2022-07-23T12:45:53;96072.00;;;41.13;15.67
50394;BME280;36308;46.312;25.288;2022-07-23T12:48:23;96076.75;;;41.16;16.35
50394;BME280;36308;46.312;25.288;2022-07-23T12:51:06;96072.69;;;41.17;15.67
50394;BME280;36308;46.312;25.288;2022-07-23T12:53:46;96083.78;;;40.98;15.16
50394;BME280;36308;46.312;25.288;2022-07-23T12:58:45;96064.59;;;40.71;16.22
50394;BME280;36308;46.312;25.288;2022-07-23T13:04:13;96057.38;;;40.83;16.60
50394;BME280;36308;46.312;25.288;2022-07-23T13:06:57;96072.41;;;41.02;17.30
50394;BME280;36308;46.312;25.288;2022-07-23T13:09:26;96073.72;;;41.10;16.33
50394;BME280;36308;46.312;25.288;2022-07-23T13:11:53;96069.50;;;41.15;16.07
50394;BME280;36308;46.312;25.288;2022-07-23T13:14:20;96070.19;;;41.19;16.31
50394;BME280;36308;46.312;25.288;2022-07-23T13:16:46;96067.94;;;41.14;15.63
50394;BME280;36308;46.312;25.288;2022-07-23T13:19:13;96066.63;;;41.06;15.02
50394;BME280;36308;46.312;25.288;2022-07-23T13:21:39;96083.34;;;41.00;15.59
50394;BME280;36308;46.312;25.288;2022-07-23T13:24:06;96076.06;;;40.90;15.00
50394;BME280;36308;46.312;25.288;2022-07-23T13:26:31;96073.31;;;40.77;15.16
50394;BME280;36308;46.312;25.288;2022-07-23T13:28:57;96067.44;;;40.71;15.61
50394;BME280;36308;46.312;25.288;2022-07-23T13:31:23;96079.06;;;40.73;15.46
50394;BME280;36308;46.312;25.288;2022-07-23T13:33:48;96076.44;;;40.79;15.77
50394;BME280;36308;46.312;25.288;2022-07-23T13:36:14;96079.81;;;40.87;15.89
50394;BME280;36308;46.312;25.288;2022-07-23T13:38:40;96085.97;;;40.94;16.45